createdAt,value
2018-11-21T00:32:26.355Z,38.62
2018-11-21T00:34:54.533Z,38.51
2018-11-21T00:37:23.537Z,38.60
2018-11-21T00:39:51.608Z,38.66
2018-11-21T00:42:19.273Z,38.74
2018-11-21T00:44:46.861Z,38.68
2018-11-21T00:47:14.981Z,38.43
2018-11-21T00:49:43.567Z,38.12
2018-11-21T00:52:11.447Z,37.75
2018-11-21T00:54:39.017Z,37.59
2018-11-21T00:57:06.825Z,37.51
2018-11-21T00:59:34.534Z,36.85
2018-11-21T01:02:02.539Z,36.88
2018-11-21T01:04:30.018Z,37.61
2018-11-21T01:06:57.426Z,37.86
2018-11-21T01:09:25.529Z,38.09
2018-11-21T01:14:56.455Z,38.62
2018-11-21T01:17:24.510Z,38.55
2018-11-21T01:19:51.970Z,38.41
2018-11-21T01:22:19.674Z,38.15
2018-11-21T01:28:29.231Z,37.58
2018-11-21T01:30:56.886Z,38.22
2018-11-21T01:33:24.059Z,38.48
2018-11-21T01:35:52.004Z,38.63
2018-11-21T01:39:29.859Z,38.59
2018-11-21T01:41:57.516Z,38.42
2018-11-21T01:44:25.745Z,38.16
2018-11-21T01:46:53.842Z,38.19
2018-11-21T01:49:21.856Z,38.26
2018-11-21T01:51:49.406Z,38.49
2018-11-21T01:54:16.722Z,38.42
2018-11-21T01:56:44.024Z,38.50
2018-11-21T01:59:11.449Z,38.38
2018-11-21T02:01:39.339Z,38.53
2018-11-21T02:04:06.739Z,38.48
2018-11-21T02:06:34.574Z,38.20
2018-11-21T02:09:02.043Z,37.99
2018-11-21T02:11:29.669Z,37.59
2018-11-21T02:13:57.233Z,37.59
2018-11-21T02:16:24.530Z,36.85
2018-11-21T02:18:52.525Z,36.80
2018-11-21T02:21:19.796Z,36.54
2018-11-21T02:23:47.264Z,37.38
2018-11-21T02:26:15.235Z,37.79
2018-11-21T02:28:42.897Z,38.06
2018-11-21T02:31:10.526Z,38.09
2018-11-21T02:33:38.960Z,37.96
2018-11-21T02:36:06.567Z,37.91
2018-11-21T02:38:34.019Z,38.44
2018-11-21T02:41:01.989Z,38.10
2018-11-21T02:43:29.374Z,38.10
2018-11-21T02:45:56.971Z,38.42
2018-11-21T02:48:24.450Z,38.25
2018-11-21T02:50:52.767Z,38.09
2018-11-21T02:53:20.012Z,37.73
2018-11-21T02:55:47.889Z,37.90
2018-11-21T02:58:16.244Z,37.50
2018-11-21T03:00:44.420Z,37.04
2018-11-21T03:03:12.389Z,36.88
2018-11-21T03:05:40.242Z,36.45
2018-11-21T03:08:07.528Z,37.26
2018-11-21T03:10:35.899Z,37.60
2018-11-21T03:13:02.798Z,37.89
2018-11-21T03:15:30.246Z,38.01
2018-11-21T03:17:58.023Z,38.11
2018-11-21T03:20:25.832Z,38.48
2018-11-21T03:22:53.868Z,38.48
2018-11-21T03:25:21.463Z,38.25
2018-11-21T03:27:48.901Z,38.18
2018-11-21T03:30:16.248Z,38.24
2018-11-21T03:32:43.910Z,38.39
2018-11-21T03:35:10.977Z,38.04
2018-11-21T03:37:39.699Z,38.00
2018-11-21T03:40:09.559Z,37.85
2018-11-21T03:42:37.066Z,37.35
2018-11-21T03:45:06.735Z,37.00
2018-11-21T03:47:35.252Z,37.04
2018-11-21T03:50:03.039Z,36.52
2018-11-21T03:53:20.534Z,38.36
2018-11-21T03:55:49.228Z,38.31
2018-11-21T03:58:17.047Z,38.26
2018-11-21T04:00:45.353Z,38.23
2018-11-21T04:04:26.812Z,38.02
2018-11-21T04:06:55.257Z,37.85
2018-11-21T04:09:22.535Z,37.96
2018-11-21T04:11:50.650Z,38.20
2018-11-21T04:14:17.927Z,38.09
2018-11-21T04:16:45.419Z,38.26
2018-11-21T04:19:13.222Z,38.30
2018-11-21T04:21:41.051Z,38.36
2018-11-21T04:24:08.553Z,38.15
2018-11-21T04:26:35.992Z,37.93
2018-11-21T04:29:03.934Z,37.58
2018-11-21T04:31:31.363Z,37.50
2018-11-21T04:33:59.246Z,37.17
2018-11-21T04:36:26.541Z,36.70
2018-11-21T04:38:53.875Z,36.70
2018-11-21T04:41:21.538Z,36.46
2018-11-21T04:43:49.810Z,37.29
2018-11-21T04:46:17.527Z,37.67
2018-11-21T04:48:45.725Z,37.90
2018-11-21T04:51:13.912Z,37.98
2018-11-21T04:53:41.251Z,38.04
2018-11-21T04:56:09.027Z,38.10
2018-11-21T04:58:36.471Z,38.06
2018-11-21T05:01:03.975Z,38.06
2018-11-21T05:03:32.039Z,38.15
2018-11-21T05:05:59.775Z,38.00
2018-11-21T05:08:27.895Z,38.00
2018-11-21T05:10:54.831Z,37.74
2018-11-21T05:13:22.260Z,37.49
2018-11-21T05:15:49.540Z,37.40
2018-11-21T05:18:17.641Z,36.87
2018-11-21T05:20:44.956Z,36.57
2018-11-21T05:23:13.435Z,36.48
2018-11-21T05:25:41.784Z,36.34
2018-11-21T05:28:09.426Z,37.29
2018-11-21T05:30:36.940Z,37.68
2018-11-21T05:33:04.290Z,37.69
2018-11-21T05:35:31.545Z,37.72
2018-11-21T05:37:58.845Z,37.77
2018-11-21T05:40:27.951Z,37.77
2018-11-21T05:42:55.806Z,38.09
2018-11-21T05:45:23.763Z,37.96
2018-11-21T05:47:52.030Z,38.06
2018-11-21T05:50:19.852Z,37.92
2018-11-21T05:52:47.030Z,37.92
2018-11-21T05:55:15.258Z,37.57
2018-11-21T05:57:42.542Z,37.57
2018-11-21T06:00:11.754Z,36.99
2018-11-21T06:02:39.681Z,36.89
2018-11-21T06:05:07.882Z,36.58
2018-11-21T06:07:34.814Z,36.13
2018-11-21T06:10:02.835Z,36.43
2018-11-21T06:12:30.261Z,37.19
2018-11-21T06:14:57.551Z,37.81
2018-11-21T06:17:25.262Z,37.80
2018-11-21T06:19:53.523Z,38.15
2018-11-21T06:22:20.847Z,38.00
2018-11-21T06:24:48.746Z,38.10
2018-11-21T06:27:16.386Z,38.00
2018-11-21T06:29:44.499Z,37.92
2018-11-21T06:32:11.819Z,38.03
2018-11-21T06:34:39.253Z,38.41
2018-11-21T06:37:06.912Z,38.04
2018-11-21T06:40:45.436Z,39.50
2018-11-21T06:43:12.730Z,38.97
2018-11-21T06:45:41.435Z,38.38
2018-11-21T06:48:09.823Z,38.17
2018-11-21T06:50:37.463Z,38.23
2018-11-21T06:53:05.507Z,38.38
2018-11-21T06:55:32.796Z,37.99
2018-11-21T06:58:00.020Z,38.59
2018-11-21T07:00:27.779Z,38.23
2018-11-21T07:02:55.435Z,37.97
2018-11-21T07:05:23.486Z,37.52
2018-11-21T07:07:50.770Z,37.32
2018-11-21T07:10:18.458Z,37.04
2018-11-21T07:12:45.885Z,37.07
2018-11-21T07:15:12.806Z,36.58
2018-11-21T07:17:41.061Z,36.36
2018-11-21T07:20:10.817Z,37.01
2018-11-21T07:22:38.633Z,37.49
2018-11-21T07:25:15.965Z,37.58
2018-11-21T07:27:42.942Z,37.73
2018-11-21T07:30:11.946Z,37.66
2018-11-21T07:32:39.633Z,37.69
2018-11-21T07:35:07.618Z,37.96
2018-11-21T07:37:35.961Z,37.90
2018-11-21T07:40:04.922Z,37.67
2018-11-21T07:42:33.678Z,37.72
2018-11-21T07:45:02.733Z,37.48
2018-11-21T07:47:30.763Z,37.62
2018-11-21T07:49:58.638Z,37.41
2018-11-21T07:52:25.938Z,38.01
2018-11-21T07:54:53.415Z,36.89
2018-11-21T07:57:38.893Z,37.57
2018-11-21T08:00:54.874Z,37.16
2018-11-21T08:05:50.138Z,37.57
2018-11-21T08:08:30.919Z,37.60
2018-11-21T08:11:26.533Z,37.76
2018-11-21T08:14:28.535Z,37.06
2018-11-21T08:17:09.934Z,37.12
2018-11-21T08:19:56.739Z,37.28
2018-11-21T08:22:49.992Z,37.30
2018-11-21T08:25:50.337Z,36.93
2018-11-21T08:28:20.589Z,36.42
2018-11-21T08:30:49.546Z,37.31
2018-11-21T08:33:16.857Z,37.35
2018-11-21T08:35:44.538Z,37.53
2018-11-21T08:38:12.760Z,37.38
2018-11-21T08:40:40.490Z,37.38
2018-11-21T08:43:07.916Z,37.30
2018-11-21T08:45:34.907Z,37.29
2018-11-21T08:48:02.812Z,37.31
2018-11-21T08:50:30.266Z,36.92
2018-11-21T08:52:57.635Z,37.24
2018-11-21T09:52:55.402Z,37.66
2018-11-21T09:55:25.260Z,37.56
2018-11-21T09:57:55.443Z,37.63
2018-11-21T12:35:54.647Z,35.90
2018-11-21T13:06:21.639Z,35.09
2018-11-21T13:09:12.247Z,35.81
2018-11-21T13:12:09.360Z,36.09
2018-11-21T13:14:52.414Z,35.03
2018-11-21T13:17:39.652Z,35.33
2018-11-21T13:20:31.649Z,35.59
2018-11-21T13:23:28.798Z,35.71
2018-11-21T13:26:15.939Z,35.66
2018-11-21T13:29:20.607Z,34.73
2018-11-21T13:32:09.417Z,35.44
2018-11-21T13:34:58.122Z,35.76
2018-11-21T13:37:52.605Z,35.87
2018-11-21T13:40:36.044Z,35.03
2018-11-21T13:43:24.256Z,35.11
